Time;durP1;ratioP1;P1;durP2;ratioP2;P2;SDS_P1;SDS_P2;PMS_P1;PMS_P2;Temp;Humidity;BMP_temperature;BMP_pressure;BME280_temperature;BME280_humidity;BME280_pressure;Samples;Min_cycle;Max_cycle;Signal;HPM_P1;HPM_P2
2022/05/08 00:01:41;;;;;;;3.70;1.30;;;13.00;99.90;;;;;;20210741;29;20051;-38
2022/05/08 00:11:42;;;;;;;3.63;1.65;;;12.90;99.90;;;;;;20201836;29;20052;-38
2022/05/08 00:21:43;;;;;;;2.50;1.40;;;13.00;99.90;;;;;;20198370;28;20061;-38
2022/05/08 00:31:45;;;;;;;4.68;2.10;;;12.80;99.90;;;;;;20214086;29;20044;-38
2022/05/08 00:41:46;;;;;;;3.70;1.20;;;12.60;99.90;;;;;;20178499;29;20068;-38
2022/05/08 00:51:49;;;;;;;3.42;1.45;;;12.60;99.90;;;;;;20202520;28;20036;-38
2022/05/08 01:01:50;;;;;;;4.40;1.92;;;12.50;99.90;;;;;;20213370;28;20048;-38
2022/05/08 01:11:51;;;;;;;2.75;1.13;;;12.40;99.90;;;;;;20186830;28;20040;-39
2022/05/08 01:21:52;;;;;;;3.58;1.15;;;12.30;99.90;;;;;;20199015;28;20057;-38
2022/05/08 01:31:54;;;;;;;2.95;1.08;;;12.00;99.90;;;;;;20209929;28;20085;-38
2022/05/08 01:41:55;;;;;;;2.47;1.00;;;11.70;99.90;;;;;;20183783;28;20056;-38
2022/05/08 01:51:56;;;;;;;5.70;1.25;;;11.40;99.90;;;;;;20197136;28;20055;-38
2022/05/08 02:01:57;;;;;;;2.00;0.95;;;11.20;99.90;;;;;;20190065;29;20912;-38
2022/05/08 02:11:58;;;;;;;5.90;1.02;;;11.00;99.90;;;;;;20194818;28;20488;-39
2022/05/08 02:21:59;;;;;;;2.88;1.10;;;10.80;99.90;;;;;;20181921;29;20048;-38
2022/05/08 02:42:12;;;;;;;4.68;0.80;;;10.50;99.90;;;;;;12488747;23;20045;-83
2022/05/08 02:52:13;;;;;;;8.95;1.10;;;10.30;99.90;;;;;;20135837;29;20045;-83
2022/05/08 03:02:16;;;;;;;6.25;2.25;;;10.20;99.90;;;;;;20126116;29;20057;-83
2022/05/08 03:12:17;;;;;;;2.55;1.13;;;10.10;99.90;;;;;;20134344;29;20393;-83
2022/05/08 03:22:18;;;;;;;7.75;1.23;;;10.00;99.90;;;;;;20142233;29;20068;-83
2022/05/08 03:32:19;;;;;;;4.20;2.15;;;9.90;99.90;;;;;;20156000;29;20049;-83
2022/05/08 03:42:20;;;;;;;1.77;0.82;;;9.90;99.90;;;;;;20293170;28;20062;-83
2022/05/08 03:52:21;;;;;;;4.05;1.20;;;9.70;99.90;;;;;;20359247;28;20052;-83
2022/05/08 04:02:22;;;;;;;8.18;1.48;;;9.60;99.90;;;;;;20374988;28;20067;-83
2022/05/08 04:12:24;;;;;;;3.97;1.17;;;9.50;99.90;;;;;;20358837;28;20048;-83
2022/05/08 04:32:45;;;;;;;6.40;0.95;;;9.50;99.90;;;;;;20368312;28;20043;-83
2022/05/08 04:42:46;;;;;;;8.50;1.02;;;9.50;99.90;;;;;;20375982;28;20685;-83
2022/05/08 04:52:47;;;;;;;3.50;1.02;;;9.40;99.90;;;;;;20353449;28;20455;-83
2022/05/08 05:02:48;;;;;;;4.53;1.20;;;9.50;99.90;;;;;;20387841;28;20501;-83
2022/05/08 05:12:49;;;;;;;3.33;0.90;;;9.60;99.90;;;;;;20377360;28;20048;-83
2022/05/08 05:22:50;;;;;;;4.05;1.30;;;9.70;99.90;;;;;;20355520;28;20043;-83
2022/05/08 05:32:51;;;;;;;8.23;1.27;;;10.10;99.90;;;;;;20439293;28;20032;-83
2022/05/08 05:42:52;;;;;;;4.15;0.98;;;10.30;99.90;;;;;;20443063;28;20048;-83
2022/05/08 05:52:53;;;;;;;3.97;0.85;;;10.70;99.90;;;;;;20441903;28;20051;-83
2022/05/08 06:02:55;;;;;;;2.85;1.02;;;11.10;99.90;;;;;;20418689;28;20047;-83
2022/05/08 06:12:55;;;;;;;5.85;1.30;;;11.20;99.90;;;;;;20438417;28;20431;-83
2022/05/08 06:22:57;;;;;;;1.75;0.80;;;11.60;99.90;;;;;;20402323;28;20081;-84
2022/05/08 06:32:58;;;;;;;13.85;1.45;;;11.70;99.90;;;;;;20428656;28;20403;-84
2022/05/08 06:43:03;;;;;;;1.85;0.65;;;12.00;99.90;;;;;;20436979;28;20054;-83
2022/05/08 06:53:06;;;;;;;2.85;0.65;;;12.00;99.90;;;;;;20390490;28;20039;-84
2022/05/08 07:03:07;;;;;;;7.45;1.38;;;12.10;99.90;;;;;;20411433;28;20403;-84
2022/05/08 07:13:08;;;;;;;3.03;1.67;;;12.10;99.90;;;;;;20419168;28;20426;-83
2022/05/08 07:23:09;;;;;;;3.80;1.00;;;12.10;99.90;;;;;;20451907;28;20500;-84
2022/05/08 07:33:10;;;;;;;8.38;0.65;;;12.20;99.90;;;;;;20425239;28;20498;-84
2022/05/08 07:43:13;;;;;;;1.98;0.70;;;12.10;99.90;;;;;;20399219;28;20059;-84
2022/05/08 07:53:14;;;;;;;3.95;1.42;;;12.10;99.90;;;;;;20380400;28;20051;-84
2022/05/08 08:03:17;;;;;;;2.05;0.88;;;12.30;99.90;;;;;;20421392;28;20049;-84
2022/05/08 08:13:20;;;;;;;2.83;0.70;;;12.50;99.90;;;;;;20426678;28;20039;-84
2022/05/08 08:23:22;;;;;;;2.35;0.70;;;12.60;99.90;;;;;;20429041;28;20043;-84
2022/05/08 08:33:23;;;;;;;1.83;0.70;;;12.90;99.90;;;;;;20423247;28;20131;-84
2022/05/08 08:43:26;;;;;;;3.70;0.80;;;13.10;99.90;;;;;;20415594;28;20050;-83
2022/05/08 08:53:28;;;;;;;9.20;2.50;;;13.20;99.90;;;;;;20422083;28;20486;-83
2022/05/08 09:03:30;;;;;;;2.40;0.75;;;13.30;99.90;;;;;;20427976;28;20095;-84
2022/05/08 09:13:34;;;;;;;4.75;1.05;;;13.80;99.90;;;;;;20414363;28;20050;-84
2022/05/08 09:23:35;;;;;;;2.90;0.73;;;14.10;99.90;;;;;;20401302;28;20103;-84
2022/05/08 09:33:37;;;;;;;2.30;1.60;;;14.30;99.90;;;;;;20444808;28;20626;-85
2022/05/08 09:43:40;;;;;;;0.90;0.40;;;14.50;99.90;;;;;;20421837;28;20058;-84
2022/05/08 09:53:43;;;;;;;4.60;1.60;;;14.60;99.90;;;;;;20431455;28;20039;-84
2022/05/08 10:03:45;;;;;;;2.88;0.73;;;14.70;99.90;;;;;;20412496;28;20140;-85
2022/05/08 10:13:53;;;;;;;1.50;0.80;;;15.20;99.90;;;;;;20416526;28;20035;-85
2022/05/08 10:23:55;;;;;;;2.42;0.90;;;15.50;99.90;;;;;;20415896;28;20055;-85
2022/05/08 10:34:05;;;;;;;2.95;1.95;;;15.70;99.90;;;;;;20468887;28;20068;-85
2022/05/08 10:44:33;;;;;;;5.35;0.90;;;15.40;99.90;;;;;;20466881;28;20048;-84
2022/05/08 10:54:34;;;;;;;2.45;0.57;;;15.60;99.90;;;;;;20458644;28;20499;-84
2022/05/08 11:04:50;;;;;;;1.92;0.70;;;15.80;99.90;;;;;;20435881;28;20399;-85
2022/05/08 11:15:07;;;;;;;1.47;0.60;;;15.70;99.90;;;;;;20413956;28;20043;-84
2022/05/08 11:25:12;;;;;;;1.25;0.70;;;15.90;99.90;;;;;;20433500;28;20062;-82
2022/05/08 11:45:35;;;;;;;4.70;1.05;;;16.50;99.90;;;;;;20447859;28;20472;-84
2022/05/08 11:55:43;;;;;;;1.70;0.68;;;16.30;99.90;;;;;;20407749;28;20043;-83
2022/05/08 12:05:46;;;;;;;1.83;0.60;;;16.50;99.90;;;;;;20477847;28;20107;-83
2022/05/08 12:15:47;;;;;;;1.23;0.52;;;16.50;99.90;;;;;;20459210;28;20141;-84
2022/05/08 12:25:48;;;;;;;3.50;0.90;;;16.40;99.90;;;;;;20445167;28;20344;-84
2022/05/08 12:35:50;;;;;;;1.83;0.98;;;17.00;99.90;;;;;;20420672;28;20036;-83
2022/05/08 12:45:51;;;;;;;1.88;0.60;;;17.20;99.90;;;;;;20448967;28;20043;-84
2022/05/08 12:55:52;;;;;;;1.50;0.60;;;17.10;99.90;;;;;;20455560;28;20075;-83
2022/05/08 13:05:54;;;;;;;2.20;0.80;;;17.20;99.90;;;;;;20423192;28;20043;-83
2022/05/08 13:15:55;;;;;;;3.00;0.45;;;17.10;99.90;;;;;;20424650;28;20058;-83
2022/05/08 13:25:56;;;;;;;0.90;0.30;;;17.20;99.90;;;;;;20447390;28;20040;-84
2022/05/08 13:35:57;;;;;;;1.48;0.60;;;17.50;99.90;;;;;;20438043;28;20039;-83
2022/05/08 13:45:58;;;;;;;2.38;0.70;;;17.80;99.90;;;;;;20415904;28;22019;-83
2022/05/08 13:56:02;;;;;;;1.98;0.68;;;17.40;99.90;;;;;;20419376;28;20404;-84
2022/05/08 14:06:03;;;;;;;2.15;0.63;;;17.30;99.90;;;;;;20409756;28;20039;-84
2022/05/08 14:16:05;;;;;;;1.35;0.50;;;16.70;99.90;;;;;;20387637;28;20059;-84
2022/05/08 14:26:06;;;;;;;1.52;0.52;;;16.60;99.90;;;;;;20402666;28;20281;-83
2022/05/08 14:36:07;;;;;;;2.22;0.70;;;17.10;99.90;;;;;;20402361;28;20054;-83
2022/05/08 14:46:08;;;;;;;1.63;0.45;;;17.10;99.90;;;;;;20410290;28;20043;-83
2022/05/08 14:56:12;;;;;;;9.13;0.88;;;16.70;99.90;;;;;;20388457;28;20039;-83
2022/05/08 15:06:13;;;;;;;4.53;0.70;;;16.60;99.90;;;;;;20424092;28;20079;-83
2022/05/08 15:16:14;;;;;;;2.45;1.08;;;16.40;99.90;;;;;;20397661;28;20039;-83
2022/05/08 15:26:17;;;;;;;3.22;0.52;;;16.30;99.90;;;;;;20414682;28;20111;-83
2022/05/08 15:36:18;;;;;;;1.33;0.60;;;16.30;99.90;;;;;;20429620;28;20039;-83
2022/05/08 15:46:20;;;;;;;5.13;1.77;;;16.40;99.90;;;;;;20370440;28;20179;-83
2022/05/08 15:56:21;;;;;;;4.28;0.80;;;16.20;99.90;;;;;;20427069;28;20043;-83
2022/05/08 16:06:22;;;;;;;2.15;0.80;;;15.90;99.90;;;;;;20421322;28;20087;-83
2022/05/08 16:26:44;;;;;;;2.50;0.47;;;15.70;99.90;;;;;;20422691;28;20381;-82
2022/05/08 16:36:45;;;;;;;1.60;0.52;;;15.80;99.90;;;;;;20401631;28;20050;-83
2022/05/08 16:46:47;;;;;;;2.53;0.50;;;15.60;99.90;;;;;;20395561;28;20047;-82
2022/05/08 16:56:48;;;;;;;1.77;0.60;;;15.60;99.90;;;;;;20403334;28;20058;-82
2022/05/08 17:06:50;;;;;;;2.28;0.68;;;15.40;99.90;;;;;;20425681;28;20047;-82
2022/05/08 17:16:51;;;;;;;1.80;0.70;;;15.30;99.90;;;;;;20443920;28;20499;-82
2022/05/08 17:37:12;;;;;;;2.08;0.45;;;15.00;99.90;;;;;;20455671;28;20038;-82
2022/05/08 17:47:17;;;;;;;1.85;0.73;;;14.60;99.90;;;;;;20453669;28;20051;-82
2022/05/08 17:57:18;;;;;;;1.55;0.60;;;14.30;99.90;;;;;;20421699;28;20487;-82
2022/05/08 18:07:19;;;;;;;2.83;1.02;;;14.20;99.90;;;;;;20433984;28;20361;-82
2022/05/08 18:17:21;;;;;;;3.42;1.00;;;14.20;99.90;;;;;;20434272;28;20039;-82
2022/05/08 18:27:22;;;;;;;1.15;0.43;;;14.20;99.90;;;;;;20440191;28;20066;-83
2022/05/08 18:37:23;;;;;;;4.85;0.60;;;13.90;99.90;;;;;;20415887;28;20528;-82
2022/05/08 18:47:24;;;;;;;0.63;0.30;;;13.90;99.90;;;;;;20446838;28;20062;-82
2022/05/08 18:57:25;;;;;;;11.93;0.88;;;13.70;99.90;;;;;;20449911;28;20422;-82
2022/05/08 19:07:26;;;;;;;2.38;0.55;;;13.60;99.90;;;;;;20449647;28;20039;-82
2022/05/08 19:17:28;;;;;;;3.28;1.02;;;13.60;99.90;;;;;;20447815;28;20573;-81
2022/05/08 19:27:29;;;;;;;2.58;0.47;;;13.40;99.90;;;;;;20436980;28;20047;-82
2022/05/08 19:47:50;;;;;;;1.67;0.50;;;13.30;99.90;;;;;;20442875;28;20062;-82
2022/05/08 19:57:51;;;;;;;2.83;0.50;;;13.20;99.90;;;;;;20419562;28;20054;-82
2022/05/08 20:07:53;;;;;;;1.30;0.55;;;13.10;99.90;;;;;;20447884;28;20043;-82
2022/05/08 20:17:55;;;;;;;2.10;0.52;;;13.10;99.90;;;;;;20454023;28;20111;-82
2022/05/08 20:27:59;;;;;;;3.42;0.98;;;12.80;99.90;;;;;;20441138;28;20039;-82
2022/05/08 20:38:00;;;;;;;2.10;0.70;;;12.80;99.90;;;;;;20455815;28;20047;-84
2022/05/08 20:48:01;;;;;;;2.85;0.50;;;12.70;99.90;;;;;;20447456;28;20053;-83
2022/05/08 20:58:02;;;;;;;2.85;0.50;;;12.70;99.90;;;;;;20429070;28;20051;-83
2022/05/08 21:08:03;;;;;;;2.38;0.63;;;12.50;99.90;;;;;;20438963;28;20051;-83
2022/05/08 21:18:05;;;;;;;2.33;0.60;;;12.20;99.90;;;;;;20434250;28;20039;-83
2022/05/08 21:28:06;;;;;;;3.20;0.60;;;12.00;99.90;;;;;;20416084;28;20039;-83
2022/05/08 21:38:08;;;;;;;2.03;0.60;;;11.90;99.90;;;;;;20432182;28;20478;-83
2022/05/08 21:48:12;;;;;;;4.95;1.15;;;11.80;99.90;;;;;;20431881;28;20059;-82
2022/05/08 21:58:15;;;;;;;2.33;0.60;;;11.70;99.90;;;;;;20441280;28;20051;-82
2022/05/08 22:08:16;;;;;;;2.28;0.73;;;11.60;99.90;;;;;;20414888;28;20051;-82
2022/05/08 22:28:37;;;;;;;2.70;0.98;;;11.20;99.90;;;;;;20408771;28;20380;-83
2022/05/08 22:38:38;;;;;;;4.63;0.82;;;11.10;99.90;;;;;;20395502;28;20390;-83
2022/05/08 22:48:39;;;;;;;2.58;0.68;;;11.00;99.90;;;;;;20419569;28;20402;-83
2022/05/08 22:58:40;;;;;;;2.20;0.57;;;10.90;99.90;;;;;;20416924;28;20047;-83
2022/05/08 23:08:41;;;;;;;2.72;0.60;;;10.80;99.90;;;;;;20393261;28;20051;-82
2022/05/08 23:18:42;;;;;;;2.38;0.90;;;10.70;99.90;;;;;;20427412;28;20050;-83
2022/05/08 23:28:46;;;;;;;3.13;0.63;;;10.60;99.90;;;;;;20424370;28;21009;-83
2022/05/08 23:38:46;;;;;;;3.45;1.13;;;10.50;99.90;;;;;;20437620;28;20040;-82
2022/05/08 23:48:47;;;;;;;1.50;0.80;;;10.40;99.90;;;;;;20445133;28;20043;-82
2022/05/08 23:58:49;;;;;;;2.15;0.82;;;10.30;99.90;;;;;;20449668;28;20095;-82
